Time;durP1;ratioP1;P1;durP2;ratioP2;P2;SDS_P1;SDS_P2;PMS_P1;PMS_P2;Temp;Humidity;BMP_temperature;BMP_pressure;BME280_temperature;BME280_humidity;BME280_pressure;Samples;Min_cycle;Max_cycle;Signal;HPM_P1;HPM_P2
2021/03/30 00:02:24;;;;;;;4.30;2.10;;;10.40;99.90;9.50;98264.00;;;;5083133;28;20199;-72
2021/03/30 00:05:14;;;;;;;5.63;1.80;;;10.40;99.90;9.50;98257.00;;;;5084636;28;20215;-72
2021/03/30 00:08:02;;;;;;;3.87;2.27;;;10.40;99.90;9.50;98255.00;;;;5073251;28;20231;-72
2021/03/30 00:10:50;;;;;;;3.63;1.70;;;10.30;99.90;9.30;98252.00;;;;5086469;28;20255;-73
2021/03/30 00:13:38;;;;;;;3.93;2.70;;;10.30;99.90;9.10;98240.00;;;;5072002;28;20219;-73
2021/03/30 00:16:26;;;;;;;4.20;2.30;;;10.20;99.90;8.90;98241.00;;;;5066654;28;20198;-71
2021/03/30 00:19:14;;;;;;;6.10;2.03;;;10.00;99.90;8.50;98250.00;;;;5065660;28;20605;-73
2021/03/30 00:22:03;;;;;;;5.10;2.20;;;9.80;99.90;8.20;98241.00;;;;5065471;28;20204;-73
2021/03/30 00:24:51;;;;;;;5.03;2.90;;;9.60;99.90;8.20;98243.00;;;;5065760;28;20218;-72
2021/03/30 00:27:39;;;;;;;3.37;2.00;;;9.40;99.90;8.40;98245.00;;;;5066854;28;20216;-72
2021/03/30 00:30:27;;;;;;;4.10;1.97;;;9.30;99.90;8.50;98242.00;;;;5066698;28;20200;-73
2021/03/30 00:33:15;;;;;;;4.03;2.20;;;9.30;99.90;8.60;98246.00;;;;5064908;28;20200;-73
2021/03/30 00:36:03;;;;;;;4.67;2.00;;;9.30;99.90;8.60;98247.00;;;;5065776;28;20211;-73
2021/03/30 00:38:52;;;;;;;2.90;2.07;;;9.30;99.90;8.70;98242.00;;;;5064598;28;20235;-72
2021/03/30 00:41:42;;;;;;;4.13;2.67;;;9.40;99.90;8.40;98236.00;;;;5066798;28;20199;-73
2021/03/30 00:44:30;;;;;;;2.57;2.00;;;9.40;99.90;8.20;98235.00;;;;5066858;28;20214;-72
2021/03/30 00:47:21;;;;;;;2.60;2.27;;;9.30;99.90;7.80;98228.00;;;;5066085;28;20204;-73
2021/03/30 00:50:13;;;;;;;7.93;2.47;;;9.10;99.90;7.70;98233.00;;;;5065017;28;20207;-72
2021/03/30 00:53:01;;;;;;;4.03;2.17;;;8.90;99.90;7.70;98234.00;;;;5066919;28;20207;-73
2021/03/30 00:55:50;;;;;;;6.83;2.50;;;8.70;99.90;7.80;98244.00;;;;5064763;28;20204;-72
2021/03/30 00:58:39;;;;;;;4.57;1.80;;;8.70;99.90;7.80;98240.00;;;;5073915;28;20235;-72
2021/03/30 01:01:27;;;;;;;8.67;1.77;;;8.70;99.90;8.00;98239.00;;;;5079933;28;20208;-72
2021/03/30 01:04:15;;;;;;;5.03;2.47;;;8.70;99.90;8.00;98246.00;;;;5065975;28;20199;-71
2021/03/30 01:07:04;;;;;;;3.50;1.77;;;8.70;99.90;8.00;98242.00;;;;5066679;28;20691;-72
2021/03/30 01:10:07;;;;;;;2.67;1.80;;;8.80;99.90;8.10;98242.00;;;;5066211;28;20261;-72
2021/03/30 01:13:17;;;;;;;2.77;1.93;;;8.80;99.90;7.60;98231.00;;;;5064462;28;20196;-72
2021/03/30 01:16:10;;;;;;;7.30;2.53;;;8.70;99.90;7.60;98231.00;;;;5066754;28;20204;-72
2021/03/30 01:19:09;;;;;;;4.97;2.03;;;8.60;99.90;7.60;98244.00;;;;5063427;28;20228;-73
2021/03/30 01:22:40;;;;;;;3.10;2.30;;;8.60;99.90;7.60;98234.00;;;;5067549;28;20618;-72
2021/03/30 01:25:29;;;;;;;3.20;1.90;;;8.50;99.90;7.60;98237.00;;;;5046044;28;20203;-72
2021/03/30 01:28:29;;;;;;;3.03;1.87;;;8.50;99.90;7.30;98230.00;;;;5081316;28;20223;-72
2021/03/30 01:31:20;;;;;;;4.30;3.90;;;8.40;99.90;7.40;98232.00;;;;5081246;28;20682;-72
2021/03/30 01:34:12;;;;;;;2.20;1.70;;;8.30;99.90;7.30;98224.00;;;;5072060;28;20291;-72
2021/03/30 01:37:01;;;;;;;2.83;1.73;;;8.30;99.90;7.20;98226.00;;;;5075602;28;20195;-72
2021/03/30 01:39:54;;;;;;;2.90;1.90;;;8.30;99.90;7.10;98221.00;;;;5064406;28;20902;-72
2021/03/30 01:42:43;;;;;;;4.60;3.20;;;8.20;99.90;7.00;98218.00;;;;5065187;28;20200;-72
2021/03/30 01:45:32;;;;;;;3.53;1.60;;;8.10;99.90;7.00;98226.00;;;;5077857;28;20674;-72
2021/03/30 01:48:22;;;;;;;1.80;1.70;;;8.00;99.90;7.20;98215.00;;;;5064718;28;20228;-72
2021/03/30 01:51:12;;;;;;;3.47;2.10;;;8.00;99.90;7.10;98217.00;;;;5064544;28;20769;-72
2021/03/30 01:54:01;;;;;;;6.73;3.13;;;8.00;99.90;6.90;98221.00;;;;5063372;28;20206;-72
2021/03/30 01:56:52;;;;;;;3.10;2.73;;;8.00;99.90;6.70;98207.00;;;;5064165;28;20216;-72
2021/03/30 01:59:43;;;;;;;5.77;2.57;;;7.90;99.90;6.80;98209.00;;;;5064892;28;20230;-72
2021/03/30 02:02:31;;;;;;;2.47;2.23;;;7.80;99.90;6.60;98217.00;;;;5067256;28;20215;-72
2021/03/30 02:05:22;;;;;;;2.23;1.53;;;7.70;99.90;6.40;98209.00;;;;5065614;28;20208;-72
2021/03/30 02:08:13;;;;;;;3.07;2.00;;;7.60;99.90;6.40;98204.00;;;;5065003;28;20219;-72
2021/03/30 02:11:01;;;;;;;2.80;2.40;;;7.50;99.90;6.40;98198.00;;;;5075415;28;20208;-72
2021/03/30 02:13:54;;;;;;;8.37;2.60;;;7.40;99.90;6.50;98204.00;;;;5077309;28;20215;-72
2021/03/30 02:16:50;;;;;;;2.07;1.70;;;7.40;99.90;6.40;98206.00;;;;5075763;28;20850;-72
2021/03/30 02:19:45;;;;;;;2.50;1.93;;;7.40;99.90;6.40;98200.00;;;;5068682;28;20240;-72
2021/03/30 02:22:43;;;;;;;2.43;2.00;;;7.30;99.90;6.50;98193.00;;;;5062769;28;20234;-72
2021/03/30 02:25:33;;;;;;;3.83;2.80;;;7.30;99.90;6.50;98208.00;;;;5064091;28;20239;-72
2021/03/30 02:28:35;;;;;;;1.90;1.80;;;7.40;99.90;6.20;98195.00;;;;5066191;28;20295;-72
2021/03/30 02:31:29;;;;;;;2.57;1.80;;;7.40;99.90;6.20;98206.00;;;;5068231;28;20213;-72
2021/03/30 02:34:19;;;;;;;7.57;2.57;;;7.30;99.90;6.20;98190.00;;;;5067593;28;20204;-72
2021/03/30 02:37:07;;;;;;;3.37;2.60;;;7.20;99.90;6.20;98209.00;;;;5069284;28;20212;-72
2021/03/30 02:39:57;;;;;;;3.83;2.10;;;7.20;99.90;6.20;98198.00;;;;5067617;28;20227;-72
2021/03/30 02:42:48;;;;;;;5.73;2.57;;;7.10;99.90;6.10;98208.00;;;;5067572;28;20234;-72
2021/03/30 02:45:37;;;;;;;9.03;2.30;;;7.10;99.90;6.10;98208.00;;;;5067761;28;20200;-72
2021/03/30 02:48:28;;;;;;;7.93;2.47;;;7.10;99.90;5.90;98203.00;;;;5065474;28;20223;-72
2021/03/30 02:51:17;;;;;;;2.27;2.07;;;7.00;99.90;5.90;98202.00;;;;5067506;28;20200;-72
2021/03/30 02:54:08;;;;;;;2.20;2.10;;;6.90;99.90;5.60;98196.00;;;;5079003;28;20210;-72
2021/03/30 02:57:00;;;;;;;5.03;2.53;;;6.80;99.90;5.60;98202.00;;;;5087285;28;20693;-72
2021/03/30 02:59:50;;;;;;;3.83;3.43;;;6.70;99.90;5.50;98191.00;;;;5072163;28;20612;-72
2021/03/30 03:02:38;;;;;;;2.97;2.67;;;6.60;99.90;5.70;98188.00;;;;5072794;28;20209;-72
2021/03/30 03:05:26;;;;;;;6.80;2.50;;;6.60;99.90;5.90;98190.00;;;;5068238;28;20684;-72
2021/03/30 03:08:15;;;;;;;2.40;2.17;;;6.60;99.90;6.00;98193.00;;;;5067946;28;20232;-72
2021/03/30 03:11:05;;;;;;;2.10;2.00;;;6.70;99.90;6.00;98192.00;;;;5069445;28;20676;-72
2021/03/30 03:13:57;;;;;;;4.93;2.30;;;6.80;99.90;5.60;98182.00;;;;5070505;28;20204;-72
2021/03/30 03:16:46;;;;;;;3.17;2.03;;;6.80;99.90;5.60;98194.00;;;;5068339;28;20219;-72
2021/03/30 03:19:35;;;;;;;9.07;2.20;;;6.70;99.90;5.40;98191.00;;;;5066771;28;20239;-72
2021/03/30 03:22:23;;;;;;;8.63;2.67;;;6.60;99.90;5.60;98200.00;;;;5068010;28;20208;-72
2021/03/30 03:25:15;;;;;;;4.60;2.07;;;6.50;99.90;5.80;98195.00;;;;5067923;28;20207;-72
2021/03/30 03:28:04;;;;;;;5.20;2.40;;;6.50;99.90;5.90;98176.00;;;;5066184;28;20310;-72
2021/03/30 03:30:52;;;;;;;3.53;2.53;;;6.60;99.90;5.80;98186.00;;;;5067561;28;20735;-72
2021/03/30 03:33:41;;;;;;;3.27;2.27;;;6.70;99.90;5.50;98181.00;;;;5067007;28;20215;-72
2021/03/30 03:36:36;;;;;;;5.93;2.30;;;6.60;99.90;5.30;98193.00;;;;5067260;28;20208;-72
2021/03/30 03:39:24;;;;;;;2.37;2.17;;;6.50;99.90;5.50;98176.00;;;;5065468;28;20235;-72
2021/03/30 03:42:12;;;;;;;3.83;2.37;;;6.50;99.90;5.70;98187.00;;;;5068031;28;20667;-72
2021/03/30 03:45:01;;;;;;;2.90;2.20;;;6.50;99.90;5.70;98181.00;;;;5067230;28;20442;-72
2021/03/30 03:47:50;;;;;;;5.57;2.30;;;6.50;99.90;5.50;98180.00;;;;5064624;28;20231;-72
2021/03/30 03:50:39;;;;;;;4.80;2.30;;;6.50;99.90;5.50;98187.00;;;;5074041;28;20607;-72
2021/03/30 03:53:28;;;;;;;5.53;2.30;;;6.50;99.90;5.70;98185.00;;;;5080587;28;20207;-72
2021/03/30 03:56:21;;;;;;;6.50;2.57;;;6.50;99.90;5.90;98202.00;;;;5085970;28;20587;-72
2021/03/30 03:59:15;;;;;;;2.87;2.13;;;6.60;99.90;5.90;98202.00;;;;5072125;28;20234;-72
2021/03/30 04:02:13;;;;;;;2.83;2.10;;;6.70;99.90;6.00;98191.00;;;;5078951;28;20203;-72
2021/03/30 04:05:09;;;;;;;4.13;2.53;;;6.80;99.90;5.90;98187.00;;;;5074265;28;20581;-72
2021/03/30 04:08:06;;;;;;;2.60;1.93;;;6.80;99.90;5.50;98197.00;;;;5087024;28;20223;-72
2021/03/30 04:10:54;;;;;;;6.80;2.20;;;6.70;99.90;5.50;98193.00;;;;5083310;28;20219;-72
2021/03/30 04:13:42;;;;;;;4.13;2.83;;;6.60;99.90;5.50;98197.00;;;;5083775;28;20203;-72
2021/03/30 04:16:31;;;;;;;6.27;2.57;;;6.50;99.90;5.30;98202.00;;;;5071038;28;20204;-71
2021/03/30 04:19:19;;;;;;;4.37;2.37;;;6.50;99.90;5.20;98199.00;;;;5085580;28;20232;-72
2021/03/30 04:22:09;;;;;;;8.00;2.60;;;6.30;99.90;5.20;98204.00;;;;5073108;28;20309;-72
2021/03/30 04:24:56;;;;;;;4.77;2.90;;;6.30;99.90;5.00;98196.00;;;;5071669;28;20354;-72
2021/03/30 04:27:44;;;;;;;7.63;2.60;;;6.20;99.90;4.90;98204.00;;;;5080311;28;20219;-72
2021/03/30 04:30:32;;;;;;;11.27;2.80;;;6.10;99.90;4.90;98199.00;;;;5077579;28;20466;-72
2021/03/30 04:33:20;;;;;;;7.23;3.13;;;6.00;99.90;4.90;98192.00;;;;5072901;28;20449;-72
2021/03/30 04:36:09;;;;;;;3.07;2.17;;;5.90;99.90;4.90;98199.00;;;;5079627;28;20434;-72
2021/03/30 04:38:57;;;;;;;4.97;1.93;;;5.90;99.90;5.40;98214.00;;;;5063536;28;20439;-72
2021/03/30 04:41:45;;;;;;;5.10;1.93;;;6.00;99.90;5.50;98213.00;;;;5078233;28;20442;-72
2021/03/30 04:44:34;;;;;;;3.80;2.30;;;6.20;99.90;4.70;98205.00;;;;5079373;28;20457;-72
2021/03/30 04:47:23;;;;;;;3.00;2.20;;;6.10;99.90;4.70;98203.00;;;;5082366;28;20430;-72
2021/03/30 04:50:12;;;;;;;3.50;2.40;;;6.00;99.90;4.50;98202.00;;;;5071537;28;20481;-72
2021/03/30 04:53:00;;;;;;;5.57;1.83;;;5.80;99.90;4.50;98203.00;;;;5071605;28;20449;-71
2021/03/30 04:55:49;;;;;;;2.33;1.97;;;5.60;99.90;4.70;98205.00;;;;5085279;28;20440;-72
2021/03/30 04:58:37;;;;;;;3.93;1.80;;;5.60;99.90;5.00;98211.00;;;;5084098;28;20478;-71
2021/03/30 05:01:25;;;;;;;3.20;2.03;;;5.70;99.90;5.10;98220.00;;;;5073399;28;20459;-71
2021/03/30 05:04:12;;;;;;;3.33;2.10;;;5.80;99.90;5.20;98215.00;;;;5072175;28;20433;-72
2021/03/30 05:07:00;;;;;;;6.83;2.30;;;6.00;99.90;5.40;98212.00;;;;5072287;28;20945;-72
2021/03/30 05:09:48;;;;;;;2.80;2.00;;;6.10;99.90;5.30;98228.00;;;;5070574;28;20465;-72
2021/03/30 05:12:37;;;;;;;2.70;2.50;;;6.10;99.90;5.20;98215.00;;;;5083733;28;20434;-72
2021/03/30 05:15:25;;;;;;;6.37;2.53;;;6.20;99.90;5.20;98227.00;;;;5079027;28;20454;-72
2021/03/30 05:18:13;;;;;;;2.83;2.13;;;6.20;99.90;5.20;98224.00;;;;5090150;28;20230;-71
2021/03/30 05:21:01;;;;;;;3.33;2.60;;;6.20;99.90;5.20;98221.00;;;;5064425;28;20208;-71
2021/03/30 05:23:49;;;;;;;6.47;2.30;;;6.20;99.90;5.40;98231.00;;;;5064951;28;20422;-72
2021/03/30 05:26:36;;;;;;;3.87;2.30;;;6.20;99.90;5.30;98227.00;;;;5064343;28;20434;-72
2021/03/30 05:29:25;;;;;;;4.17;2.53;;;6.20;99.90;5.10;98233.00;;;;5063409;28;21007;-72
2021/03/30 05:32:15;;;;;;;6.03;3.30;;;6.20;99.90;5.20;98226.00;;;;5064522;28;20438;-73
2021/03/30 05:35:06;;;;;;;3.40;2.47;;;6.20;99.90;5.10;98226.00;;;;5066109;28;22182;-72
2021/03/30 05:37:55;;;;;;;5.40;2.40;;;6.20;99.90;4.80;98224.00;;;;5077570;28;20223;-72
2021/03/30 05:40:43;;;;;;;4.53;2.50;;;6.00;99.90;5.00;98222.00;;;;5073249;28;20572;-72
2021/03/30 05:43:32;;;;;;;4.57;2.10;;;6.00;99.90;5.20;98228.00;;;;5083419;28;20693;-72
2021/03/30 05:46:21;;;;;;;9.40;4.90;;;6.00;99.90;5.40;98237.00;;;;5071630;28;20500;-71
2021/03/30 05:49:08;;;;;;;3.37;2.13;;;6.10;99.90;5.70;98234.00;;;;5072836;28;20450;-71
2021/03/30 05:51:58;;;;;;;3.80;2.67;;;6.20;99.90;5.80;98230.00;;;;5071524;28;20219;-71
2021/03/30 05:54:48;;;;;;;4.33;2.63;;;6.40;99.90;6.00;98240.00;;;;5083578;28;20666;-72
2021/03/30 05:57:36;;;;;;;4.53;2.20;;;6.60;99.90;5.90;98237.00;;;;5084812;28;20446;-72
2021/03/30 06:00:27;;;;;;;2.93;1.87;;;6.70;99.90;6.20;98239.00;;;;5083895;28;20199;-72
2021/03/30 06:03:23;;;;;;;4.80;2.07;;;6.80;99.90;6.40;98247.00;;;;5075067;28;20203;-72
2021/03/30 06:06:12;;;;;;;4.93;1.90;;;6.90;99.90;6.50;98254.00;;;;5087013;28;20195;-72
2021/03/30 06:08:59;;;;;;;8.70;2.80;;;7.10;99.90;6.00;98252.00;;;;5086690;28;20226;-73
2021/03/30 06:11:47;;;;;;;6.93;4.00;;;7.10;99.90;5.90;98238.00;;;;5088121;28;20222;-72
2021/03/30 06:14:41;;;;;;;4.00;3.00;;;7.00;99.90;6.10;98251.00;;;;5081990;28;20258;-71
2021/03/30 06:17:29;;;;;;;3.40;2.17;;;7.00;99.90;6.20;98255.00;;;;5084039;28;20701;-72
2021/03/30 06:20:30;;;;;;;3.10;2.00;;;7.00;99.90;6.00;98256.00;;;;5084626;28;20682;-71
2021/03/30 06:23:27;;;;;;;5.27;2.17;;;7.00;99.90;5.90;98260.00;;;;5088138;28;20206;-71
2021/03/30 06:26:17;;;;;;;4.40;2.73;;;6.90;99.90;5.80;98258.00;;;;5080097;28;20195;-72
2021/03/30 06:29:25;;;;;;;3.57;2.33;;;6.90;99.90;5.70;98267.00;;;;5073208;28;20231;-73
2021/03/30 06:32:16;;;;;;;3.73;2.40;;;6.80;99.90;5.70;98253.00;;;;5077784;28;20238;-72
2021/03/30 06:35:13;;;;;;;2.77;2.13;;;6.70;99.90;6.10;98256.00;;;;5084937;28;20195;-72
2021/03/30 06:38:02;;;;;;;4.63;2.43;;;6.80;99.90;6.40;98250.00;;;;5073774;28;20318;-72
2021/03/30 06:40:51;;;;;;;3.90;2.10;;;6.90;99.90;6.70;98254.00;;;;5075489;28;20223;-72
2021/03/30 06:46:44;;;;;;;3.23;2.33;;;7.30;99.90;6.90;98268.00;;;;5087657;28;20206;-73
2021/03/30 06:49:35;;;;;;;2.77;2.13;;;7.50;99.90;7.20;98255.00;;;;5082219;28;20252;-72
2021/03/30 06:52:28;;;;;;;2.37;1.90;;;7.70;99.90;7.80;98270.00;;;;5080876;28;20356;-72
2021/03/30 06:55:26;;;;;;;2.90;1.93;;;8.00;99.90;8.20;98272.00;;;;5077533;28;20216;-73
2021/03/30 06:58:16;;;;;;;3.10;2.13;;;8.30;99.90;8.60;98273.00;;;;5073038;28;20604;-73
2021/03/30 07:01:04;;;;;;;5.47;1.90;;;8.60;99.90;8.50;98279.00;;;;5086001;28;20552;-73
2021/03/30 07:03:53;;;;;;;6.03;2.10;;;8.90;99.90;8.80;98280.00;;;;5066482;28;20594;-73
2021/03/30 07:06:40;;;;;;;5.73;1.40;;;9.10;99.90;9.00;98272.00;;;;5066615;28;20204;-72
2021/03/30 07:09:29;;;;;;;2.97;2.07;;;9.40;99.90;9.20;98275.00;;;;5079974;28;20224;-73
2021/03/30 07:12:22;;;;;;;3.73;1.93;;;9.50;99.90;9.20;98275.00;;;;5078806;28;20234;-73
2021/03/30 07:15:12;;;;;;;3.80;1.97;;;9.70;99.90;9.30;98285.00;;;;5066275;28;20222;-73
2021/03/30 07:18:07;;;;;;;3.37;1.87;;;9.80;99.90;9.50;98287.00;;;;5067511;28;20615;-73
2021/03/30 07:21:01;;;;;;;5.90;2.37;;;10.00;99.90;9.70;98269.00;;;;5086067;28;20207;-73
2021/03/30 07:23:54;;;;;;;3.37;2.20;;;10.10;99.90;10.00;98272.00;;;;5085176;28;20207;-73
2021/03/30 07:26:46;;;;;;;6.30;2.50;;;10.30;99.90;10.30;98270.00;;;;5085748;28;20559;-72
2021/03/30 07:29:41;;;;;;;4.17;2.10;;;10.50;99.90;10.30;98268.00;;;;5081478;28;20219;-73
2021/03/30 07:32:38;;;;;;;5.13;2.20;;;10.80;97.20;10.60;98268.00;;;;5081176;28;20195;-73
2021/03/30 07:35:29;;;;;;;5.67;2.10;;;10.90;95.70;10.90;98266.00;;;;5080335;28;20722;-72
2021/03/30 07:38:20;;;;;;;2.53;1.90;;;11.10;96.60;11.00;98265.00;;;;5082996;28;20265;-72
2021/03/30 07:41:08;;;;;;;3.63;2.33;;;11.40;94.90;11.20;98274.00;;;;5075581;28;20921;-72
2021/03/30 07:44:02;;;;;;;6.53;2.67;;;11.50;92.40;11.40;98262.00;;;;5068565;28;20208;-73
2021/03/30 07:46:51;;;;;;;10.17;2.23;;;11.70;91.10;11.60;98260.00;;;;5088829;28;20215;-73
2021/03/30 07:49:44;;;;;;;5.27;2.10;;;11.90;88.50;11.80;98257.00;;;;5072477;28;20223;-73
2021/03/30 07:52:44;;;;;;;3.50;2.50;;;12.10;87.50;12.00;98263.00;;;;5082693;28;20782;-73
2021/03/30 07:55:39;;;;;;;6.13;1.80;;;12.30;85.80;12.40;98256.00;;;;5083722;28;20265;-73
2021/03/30 07:58:38;;;;;;;7.27;2.47;;;12.50;85.70;12.70;98258.00;;;;5081711;28;20211;-73
2021/03/30 08:01:29;;;;;;;7.27;3.17;;;12.80;82.60;12.90;98256.00;;;;5077146;28;20579;-73
2021/03/30 08:04:25;;;;;;;5.97;1.97;;;13.00;79.10;13.20;98256.00;;;;5079182;28;20218;-73
2021/03/30 08:07:13;;;;;;;2.23;2.03;;;13.30;77.10;13.40;98252.00;;;;5079775;28;20627;-73
2021/03/30 08:10:26;;;;;;;6.20;2.83;;;13.50;74.60;13.70;98257.00;;;;5081717;28;20203;-72
2021/03/30 08:13:29;;;;;;;4.43;2.20;;;13.80;73.90;14.10;98254.00;;;;5081872;28;20203;-73
2021/03/30 08:16:21;;;;;;;8.30;2.00;;;14.10;73.50;14.30;98256.00;;;;5081980;28;20572;-73
2021/03/30 08:19:13;;;;;;;6.67;2.03;;;14.40;72.10;14.60;98258.00;;;;5080349;28;20219;-73
2021/03/30 08:22:05;;;;;;;3.47;2.00;;;14.60;70.50;14.80;98256.00;;;;5080704;28;20708;-73
2021/03/30 08:24:58;;;;;;;4.07;3.03;;;14.80;69.50;15.20;98237.00;;;;5080531;28;20580;-73
2021/03/30 08:27:46;;;;;;;6.13;2.37;;;15.10;68.70;15.40;98248.00;;;;5083589;28;20226;-73
2021/03/30 08:30:56;;;;;;;2.17;1.80;;;15.40;67.50;15.60;98250.00;;;;5078951;28;20219;-72
2021/03/30 08:33:45;;;;;;;5.70;2.37;;;15.70;65.40;15.90;98248.00;;;;5079799;28;20211;-73
2021/03/30 08:36:37;;;;;;;4.93;2.00;;;15.90;66.10;16.20;98245.00;;;;5083671;28;20207;-73
2021/03/30 08:39:35;;;;;;;4.30;1.90;;;16.10;65.60;16.40;98256.00;;;;5076439;28;20896;-73
2021/03/30 08:42:24;;;;;;;7.63;2.07;;;16.40;63.60;16.50;98256.00;;;;5079742;28;20203;-73
2021/03/30 08:45:13;;;;;;;5.73;2.40;;;16.60;63.10;16.60;98248.00;;;;5079358;28;20219;-73
2021/03/30 08:48:11;;;;;;;5.73;2.50;;;16.80;62.90;16.90;98252.00;;;;5081377;28;20226;-73
2021/03/30 08:51:00;;;;;;;7.30;2.07;;;17.00;60.80;17.10;98257.00;;;;5077944;28;20212;-73
2021/03/30 08:53:49;;;;;;;4.50;1.57;;;17.20;60.70;17.30;98261.00;;;;5079989;28;20200;-72
2021/03/30 08:56:38;;;;;;;1.87;1.63;;;17.30;59.20;17.60;98267.00;;;;5078644;28;20204;-73
2021/03/30 08:59:29;;;;;;;3.50;1.57;;;17.60;58.70;17.80;98264.00;;;;5081492;28;20226;-73
2021/03/30 09:02:25;;;;;;;7.20;2.13;;;17.80;56.90;17.80;98251.00;;;;5080729;28;20207;-73
2021/03/30 09:05:18;;;;;;;2.63;1.20;;;18.00;55.90;17.80;98255.00;;;;5081410;28;20195;-73
2021/03/30 09:08:07;;;;;;;1.80;1.10;;;18.20;54.50;17.80;98246.00;;;;5081257;28;20447;-73
2021/03/30 09:11:22;;;;;;;3.80;1.47;;;18.20;52.80;18.20;98246.00;;;;5081367;28;20219;-73
2021/03/30 09:14:17;;;;;;;2.00;1.50;;;18.30;53.60;18.30;98243.00;;;;5081856;28;20248;-73
2021/03/30 09:17:09;;;;;;;6.77;1.70;;;18.50;53.20;18.50;98240.00;;;;5079485;28;20210;-73
2021/03/30 09:20:00;;;;;;;2.70;1.63;;;18.70;52.30;18.60;98240.00;;;;5078961;28;20199;-73
2021/03/30 09:22:48;;;;;;;2.90;1.67;;;18.80;51.70;18.70;98239.00;;;;5081320;28;20199;-74
2021/03/30 09:25:39;;;;;;;5.50;2.00;;;18.90;49.40;19.10;98235.00;;;;5082617;28;20199;-73
2021/03/30 09:28:27;;;;;;;3.40;1.40;;;19.10;50.30;19.00;98228.00;;;;5082376;28;20690;-73
2021/03/30 09:31:16;;;;;;;2.53;1.67;;;19.30;48.60;18.60;98215.00;;;;5079381;28;20242;-73
2021/03/30 09:34:06;;;;;;;2.27;1.03;;;19.20;47.80;18.70;98216.00;;;;5078931;28;20199;-73
2021/03/30 09:36:59;;;;;;;6.60;1.47;;;19.20;47.30;18.90;98214.00;;;;5079488;28;20675;-74
2021/03/30 09:39:48;;;;;;;5.90;2.53;;;19.20;47.40;19.50;98205.00;;;;5079063;28;20199;-73
2021/03/30 09:42:36;;;;;;;2.70;1.50;;;19.40;48.50;19.40;98212.00;;;;5077016;28;20190;-73
2021/03/30 09:45:27;;;;;;;4.07;2.83;;;19.70;47.50;19.60;98207.00;;;;5075538;28;20973;-74
2021/03/30 09:48:18;;;;;;;5.40;2.00;;;19.80;46.80;20.10;98205.00;;;;5077047;28;20215;-73
2021/03/30 09:51:07;;;;;;;2.40;1.53;;;20.00;48.20;20.00;98207.00;;;;5080537;28;20227;-73
2021/03/30 09:53:55;;;;;;;5.30;1.47;;;20.20;46.60;20.40;98197.00;;;;5072079;28;20195;-73
2021/03/30 09:56:43;;;;;;;3.67;1.57;;;20.30;47.40;20.30;98193.00;;;;5079654;28;20674;-73
2021/03/30 09:59:32;;;;;;;1.80;1.17;;;20.50;46.80;19.90;98193.00;;;;5079262;28;20249;-73
2021/03/30 10:02:22;;;;;;;2.73;1.33;;;20.60;45.20;20.20;98181.00;;;;5078097;28;20207;-73
2021/03/30 10:05:12;;;;;;;2.60;1.13;;;20.60;45.80;20.20;98188.00;;;;5080772;28;20591;-74
2021/03/30 10:08:00;;;;;;;4.63;1.30;;;20.60;44.80;20.00;98184.00;;;;5076457;28;20225;-73
2021/03/30 10:10:50;;;;;;;2.13;1.10;;;20.60;45.20;20.30;98187.00;;;;5078470;28;20224;-73
2021/03/30 10:13:40;;;;;;;3.53;1.43;;;20.60;45.60;20.90;98184.00;;;;5077899;28;20210;-73
2021/03/30 10:16:28;;;;;;;3.37;2.67;;;20.80;46.50;21.20;98184.00;;;;5075040;28;20203;-73
2021/03/30 10:19:16;;;;;;;1.73;1.10;;;21.10;45.40;21.70;98181.00;;;;5068286;28;20235;-73
2021/03/30 10:22:26;;;;;;;1.73;1.17;;;21.30;45.80;21.80;98176.00;;;;5076250;28;20208;-73
2021/03/30 10:25:27;;;;;;;3.77;1.60;;;21.70;45.80;21.00;98160.00;;;;5078830;28;20207;-74
2021/03/30 10:28:26;;;;;;;3.57;1.30;;;21.70;43.50;20.40;98158.00;;;;5074669;28;20219;-74
2021/03/30 10:31:18;;;;;;;7.63;1.40;;;21.40;43.30;20.10;98157.00;;;;5066116;28;20882;-74
2021/03/30 10:34:22;;;;;;;3.53;1.20;;;21.10;43.50;20.10;98144.00;;;;5079124;28;20191;-73
2021/03/30 10:37:13;;;;;;;2.37;1.23;;;20.80;44.20;20.60;98143.00;;;;5076271;28;20213;-74
2021/03/30 10:40:04;;;;;;;2.90;1.50;;;20.90;44.10;21.00;98145.00;;;;5077952;28;20203;-73
2021/03/30 10:42:52;;;;;;;3.67;1.17;;;21.10;43.70;21.80;98144.00;;;;5074434;28;20203;-73
2021/03/30 10:45:41;;;;;;;2.73;1.13;;;21.30;45.00;22.00;98139.00;;;;5078097;28;20214;-73
2021/03/30 10:48:28;;;;;;;3.33;2.10;;;21.70;44.80;22.40;98134.00;;;;5079912;28;20219;-74
2021/03/30 10:51:16;;;;;;;2.50;1.20;;;22.00;44.50;21.90;98134.00;;;;5082827;28;21165;-74
2021/03/30 10:54:07;;;;;;;1.10;0.87;;;22.30;43.00;22.70;98120.00;;;;5081010;28;20207;-74
2021/03/30 10:56:55;;;;;;;4.20;1.30;;;22.50;43.20;23.80;98120.00;;;;5081018;28;20203;-74
2021/03/30 10:59:44;;;;;;;1.10;1.00;;;23.00;45.00;23.50;98111.00;;;;5075278;28;20206;-74
2021/03/30 11:02:32;;;;;;;3.30;1.60;;;23.40;42.10;22.70;98109.00;;;;5074797;28;20702;-74
2021/03/30 11:05:21;;;;;;;5.70;1.57;;;23.40;41.80;23.50;98111.00;;;;5078018;28;20199;-74
2021/03/30 11:08:09;;;;;;;1.97;1.03;;;23.60;41.90;23.10;98111.00;;;;5085777;28;20230;-74
2021/03/30 11:10:57;;;;;;;7.07;1.57;;;23.60;41.50;24.10;98111.00;;;;5082381;28;20226;-74
2021/03/30 11:13:46;;;;;;;3.13;0.73;;;23.80;40.80;24.90;98113.00;;;;5084263;28;20191;-75
2021/03/30 11:16:33;;;;;;;4.30;1.23;;;24.30;41.40;25.20;98107.00;;;;5085773;28;20205;-74
2021/03/30 11:19:23;;;;;;;1.55;0.90;;;24.70;41.20;25.70;98102.00;;;;5080466;28;20847;-74
2021/03/30 11:22:11;;;;;;;2.00;1.03;;;25.10;40.30;26.10;98103.00;;;;5085752;28;20791;-74
2021/03/30 11:25:01;;;;;;;5.43;1.27;;;25.60;40.40;26.50;98109.00;;;;5083136;28;20204;-72
2021/03/30 11:27:54;;;;;;;2.57;1.00;;;25.90;39.90;27.10;98100.00;;;;5078491;28;20829;-75
2021/03/30 11:30:44;;;;;;;6.72;1.23;;;26.50;40.20;27.00;98102.00;;;;5083533;28;20206;-73
2021/03/30 11:33:34;;;;;;;5.95;1.38;;;26.60;40.20;27.70;98095.00;;;;5083164;28;20223;-73
2021/03/30 11:36:24;;;;;;;3.05;1.30;;;27.00;39.80;27.70;98094.00;;;;5084294;28;20208;-73
2021/03/30 11:39:12;;;;;;;1.30;0.90;;;27.30;39.20;27.70;98084.00;;;;5087951;28;20228;-73
2021/03/30 11:42:00;;;;;;;2.92;1.42;;;27.50;38.10;28.20;98084.00;;;;5067679;28;20241;-76
2021/03/30 11:44:49;;;;;;;1.58;0.80;;;27.70;38.90;27.20;98079.00;;;;5079087;28;20248;-73
2021/03/30 11:47:37;;;;;;;2.25;1.08;;;27.90;37.00;27.70;98082.00;;;;5085480;28;20611;-73
2021/03/30 11:50:26;;;;;;;2.08;0.80;;;27.80;37.60;28.60;98072.00;;;;5076450;28;20627;-76
2021/03/30 11:53:13;;;;;;;1.75;0.93;;;27.90;38.40;28.70;98070.00;;;;5079890;28;20205;-74
2021/03/30 11:56:03;;;;;;;1.95;0.90;;;;;28.40;98063.00;;;;5079860;28;20657;-74
2021/03/30 11:58:51;;;;;;;5.82;1.35;;;28.20;36.50;28.70;98051.00;;;;5074578;28;20225;-75
2021/03/30 12:01:40;;;;;;;1.35;1.02;;;28.40;37.70;28.60;98045.00;;;;5073354;28;20780;-75
2021/03/30 12:04:28;;;;;;;1.95;1.10;;;28.40;37.20;28.60;98046.00;;;;5076568;28;20583;-74
2021/03/30 12:07:16;;;;;;;2.58;1.17;;;28.50;36.60;29.20;98046.00;;;;5081151;28;20203;-74
2021/03/30 12:10:24;;;;;;;2.75;1.20;;;28.60;37.30;29.50;98041.00;;;;5081589;28;20201;-73
2021/03/30 12:13:12;;;;;;;2.15;1.40;;;28.90;37.30;29.10;98041.00;;;;5081717;28;20219;-74
2021/03/30 12:16:00;;;;;;;2.40;1.10;;;29.10;36.20;29.00;98028.00;;;;5083408;28;20301;-77
2021/03/30 12:18:49;;;;;;;1.20;0.93;;;29.10;35.80;29.10;98033.00;;;;5078727;28;20233;-75
2021/03/30 12:21:37;;;;;;;2.28;1.05;;;29.10;36.30;28.80;98027.00;;;;5082995;28;20499;-75
2021/03/30 12:24:25;;;;;;;2.70;1.20;;;29.20;36.40;29.10;98024.00;;;;5069703;28;20203;-74
2021/03/30 12:27:13;;;;;;;4.22;1.10;;;29.20;35.60;29.40;98023.00;;;;5081871;28;20218;-75
2021/03/30 12:30:00;;;;;;;1.77;1.00;;;29.30;35.20;30.00;98011.00;;;;5100254;28;20210;-74
2021/03/30 12:32:48;;;;;;;2.20;1.17;;;29.40;36.10;29.60;98016.00;;;;5082653;28;20195;-74
2021/03/30 12:35:37;;;;;;;3.13;0.90;;;29.30;36.10;30.30;98007.00;;;;5077365;28;20203;-76
2021/03/30 12:38:25;;;;;;;1.10;0.88;;;29.50;36.50;30.40;98008.00;;;;5077337;28;20219;-76
2021/03/30 12:41:14;;;;;;;2.38;0.95;;;29.90;36.10;30.10;98001.00;;;;5075473;28;20234;-75
2021/03/30 12:44:02;;;;;;;2.15;1.30;;;29.80;36.20;29.70;98001.00;;;;5079119;28;20556;-76
2021/03/30 12:46:49;;;;;;;2.85;1.08;;;29.80;35.30;29.20;98002.00;;;;5077486;28;20210;-76
2021/03/30 12:49:37;;;;;;;2.80;0.90;;;29.70;35.70;29.40;97994.00;;;;5079119;28;20227;-75
2021/03/30 12:52:26;;;;;;;2.15;1.48;;;29.60;35.70;28.80;97988.00;;;;5084324;28;20198;-74